Time;durP1;ratioP1;P1;durP2;ratioP2;P2;SDS_P1;SDS_P2;PMS_P1;PMS_P2;Temp;Humidity;BMP_temperature;BMP_pressure;BME280_temperature;BME280_humidity;BME280_pressure;Samples;Min_cycle;Max_cycle;Signal;HPM_P1;HPM_P2
2023/11/16 00:00:41;;;;;;;7.93;3.13;;;9.00;99.90;;;;;;5039885;28;20445;-68
2023/11/16 00:03:07;;;;;;;9.20;2.70;;;8.80;99.90;;;;;;5040935;28;20154;-68
2023/11/16 00:05:36;;;;;;;5.88;2.40;;;8.70;99.90;;;;;;5035796;28;20108;-68
2023/11/16 00:08:07;;;;;;;4.75;2.00;;;8.50;99.90;;;;;;5041550;28;20017;-68
2023/11/16 00:10:36;;;;;;;7.00;2.63;;;8.60;99.90;;;;;;5034798;28;20056;-68
2023/11/16 00:13:04;;;;;;;4.25;2.20;;;8.60;99.90;;;;;;5040599;28;20025;-68
2023/11/16 00:15:30;;;;;;;8.27;2.50;;;8.60;99.90;;;;;;5037981;28;20041;-68
2023/11/16 00:17:57;;;;;;;5.97;2.60;;;8.70;99.90;;;;;;5041289;28;20221;-68
2023/11/16 00:20:23;;;;;;;8.15;2.58;;;8.80;99.90;;;;;;5022892;28;20644;-68
2023/11/16 00:22:49;;;;;;;9.98;2.35;;;8.90;99.90;;;;;;5040983;28;20017;-68
2023/11/16 00:25:16;;;;;;;6.50;2.53;;;8.90;99.90;;;;;;5037557;28;20032;-68
2023/11/16 00:27:43;;;;;;;8.93;2.72;;;8.90;99.90;;;;;;5040657;28;20061;-68
2023/11/16 00:30:09;;;;;;;7.50;2.40;;;8.90;99.90;;;;;;5036100;28;20059;-68
2023/11/16 00:32:35;;;;;;;6.82;2.70;;;9.00;99.90;;;;;;5020929;28;20064;-68
2023/11/16 00:35:01;;;;;;;10.00;2.60;;;8.90;99.90;;;;;;5025018;28;20468;-68
2023/11/16 00:37:27;;;;;;;7.25;2.40;;;8.90;99.90;;;;;;5019996;28;20025;-68
2023/11/16 00:39:57;;;;;;;7.43;2.58;;;9.00;99.90;;;;;;5025573;28;20098;-68
2023/11/16 00:42:23;;;;;;;6.50;2.28;;;9.10;99.90;;;;;;5037829;28;20388;-68
2023/11/16 00:44:49;;;;;;;5.35;2.63;;;9.10;99.90;;;;;;5023230;28;20024;-66
2023/11/16 00:47:19;;;;;;;6.07;2.40;;;9.10;99.90;;;;;;5043412;28;20021;-66
2023/11/16 00:49:46;;;;;;;5.97;2.13;;;9.10;99.90;;;;;;5038313;28;20116;-66
2023/11/16 00:52:12;;;;;;;9.13;2.38;;;9.20;99.90;;;;;;5040652;28;20492;-66
2023/11/16 00:54:38;;;;;;;7.43;2.67;;;9.30;99.90;;;;;;5016571;28;20045;-66
2023/11/16 00:57:04;;;;;;;6.32;2.40;;;9.10;99.90;;;;;;5025408;28;20475;-66
2023/11/16 00:59:31;;;;;;;9.30;2.58;;;9.10;99.90;;;;;;5034053;28;20103;-66
2023/11/16 01:02:02;;;;;;;5.70;2.42;;;9.10;99.90;;;;;;5042370;28;20040;-66
2023/11/16 01:04:28;;;;;;;6.40;2.30;;;9.00;99.90;;;;;;5033979;28;20052;-66
2023/11/16 01:06:55;;;;;;;3.53;2.53;;;9.00;99.90;;;;;;5022006;28;20033;-66
2023/11/16 01:09:22;;;;;;;9.55;2.50;;;9.10;99.90;;;;;;5036977;28;20101;-66
2023/11/16 01:11:47;;;;;;;7.05;2.92;;;9.10;99.90;;;;;;5019920;28;20034;-66
2023/11/16 01:14:16;;;;;;;7.80;2.55;;;9.00;99.90;;;;;;5036016;28;20056;-66
2023/11/16 01:16:45;;;;;;;9.32;2.83;;;9.00;99.90;;;;;;5038868;28;20052;-66
2023/11/16 01:19:21;;;;;;;3.65;2.65;;;9.00;99.90;;;;;;5025977;28;20576;-66
2023/11/16 01:21:54;;;;;;;5.43;2.47;;;9.10;99.90;;;;;;5039449;28;21127;-66
2023/11/16 01:24:23;;;;;;;6.85;2.50;;;9.20;99.90;;;;;;5039516;28;20523;-65
2023/11/16 01:26:52;;;;;;;7.63;2.70;;;9.20;99.90;;;;;;5025936;28;20390;-66
2023/11/16 01:29:19;;;;;;;7.63;2.55;;;9.30;99.90;;;;;;5023116;28;20108;-66
2023/11/16 01:31:47;;;;;;;4.22;2.20;;;9.30;99.90;;;;;;5017877;28;20133;-66
2023/11/16 01:34:14;;;;;;;7.35;2.83;;;9.30;99.90;;;;;;5023845;28;20033;-66
2023/11/16 01:36:40;;;;;;;6.90;2.47;;;9.20;99.90;;;;;;5036409;28;20072;-65
2023/11/16 01:39:07;;;;;;;5.03;2.38;;;9.20;99.90;;;;;;5040251;28;20053;-66
2023/11/16 01:41:34;;;;;;;3.75;2.25;;;9.20;99.90;;;;;;5037403;28;20057;-65
2023/11/16 01:44:02;;;;;;;10.15;2.95;;;9.20;99.90;;;;;;5020213;28;20026;-66
2023/11/16 01:46:31;;;;;;;10.30;3.53;;;9.20;99.90;;;;;;5008793;28;20033;-66
2023/11/16 01:48:57;;;;;;;11.70;2.90;;;9.20;99.90;;;;;;5038083;28;20068;-65
2023/11/16 01:51:27;;;;;;;6.68;2.65;;;9.20;99.90;;;;;;5025925;28;20128;-65
2023/11/16 01:54:01;;;;;;;11.00;2.40;;;9.20;99.90;;;;;;5043014;28;20789;-65
2023/11/16 01:56:33;;;;;;;6.07;2.53;;;9.20;99.90;;;;;;5029129;28;20119;-65
2023/11/16 01:59:02;;;;;;;7.32;2.63;;;9.20;99.90;;;;;;5042810;28;20420;-65
2023/11/16 02:01:33;;;;;;;11.02;3.47;;;9.20;99.90;;;;;;5029730;28;20017;-65
2023/11/16 02:04:03;;;;;;;12.13;2.83;;;9.20;99.90;;;;;;5022387;28;20029;-65
2023/11/16 02:06:29;;;;;;;11.40;2.92;;;9.20;99.90;;;;;;5042783;28;20241;-65
2023/11/16 02:08:55;;;;;;;8.75;2.70;;;9.20;99.90;;;;;;5027495;28;20029;-65
2023/11/16 02:11:21;;;;;;;12.25;2.65;;;9.30;99.90;;;;;;5041035;28;20032;-65
2023/11/16 02:13:49;;;;;;;7.50;2.35;;;9.30;99.90;;;;;;5028396;28;20074;-65
2023/11/16 02:16:16;;;;;;;6.18;2.38;;;9.40;99.90;;;;;;5024562;28;20088;-65
2023/11/16 02:18:43;;;;;;;7.90;3.10;;;9.30;99.90;;;;;;5029302;28;20025;-65
2023/11/16 02:21:09;;;;;;;7.95;3.20;;;9.20;99.90;;;;;;5041441;28;20044;-65
2023/11/16 02:23:36;;;;;;;6.93;2.30;;;8.90;99.90;;;;;;5040835;28;20163;-65
2023/11/16 02:26:03;;;;;;;6.13;2.60;;;8.90;99.90;;;;;;5045044;28;20720;-65
2023/11/16 02:28:30;;;;;;;7.45;2.95;;;8.90;99.90;;;;;;5040868;28;20501;-65
2023/11/16 02:31:01;;;;;;;6.75;2.50;;;9.10;99.90;;;;;;5043954;28;20029;-65
2023/11/16 02:33:27;;;;;;;4.97;2.60;;;9.10;99.90;;;;;;5040321;28;20033;-65
2023/11/16 02:35:54;;;;;;;5.15;2.20;;;9.00;99.90;;;;;;5028932;28;20033;-65
2023/11/16 02:38:20;;;;;;;11.40;2.80;;;9.00;99.90;;;;;;5039316;28;20068;-65
2023/11/16 02:40:49;;;;;;;6.05;2.33;;;9.10;99.90;;;;;;5041328;28;20500;-65
2023/11/16 02:43:15;;;;;;;9.23;2.72;;;9.10;99.90;;;;;;5042032;28;20021;-65
2023/11/16 02:45:42;;;;;;;7.47;2.60;;;9.20;99.90;;;;;;5007668;28;20075;-65
2023/11/16 02:48:08;;;;;;;6.90;2.58;;;9.10;99.90;;;;;;5023710;28;20112;-65
2023/11/16 02:50:34;;;;;;;12.15;2.60;;;8.90;99.90;;;;;;5019957;28;20029;-65
2023/11/16 02:53:00;;;;;;;7.25;2.67;;;8.80;99.90;;;;;;5043851;28;20074;-65
2023/11/16 02:55:26;;;;;;;8.07;2.40;;;8.80;99.90;;;;;;5022093;28;20037;-65
2023/11/16 02:57:57;;;;;;;6.60;2.30;;;8.70;99.90;;;;;;5024415;28;20064;-65
2023/11/16 03:00:24;;;;;;;5.80;2.00;;;8.70;99.90;;;;;;5040317;28;20143;-65
2023/11/16 03:02:51;;;;;;;3.80;2.30;;;8.90;99.90;;;;;;5023267;28;20064;-65
2023/11/16 03:05:27;;;;;;;9.00;2.13;;;8.90;99.90;;;;;;5021814;28;20136;-65
2023/11/16 03:07:53;;;;;;;6.88;2.22;;;8.80;99.90;;;;;;5022210;28;20545;-65
2023/11/16 03:10:20;;;;;;;4.68;2.30;;;8.80;99.90;;;;;;5023754;28;20033;-65
2023/11/16 03:12:46;;;;;;;7.53;2.63;;;8.90;99.90;;;;;;5038464;28;20048;-65
2023/11/16 03:15:12;;;;;;;4.80;2.03;;;8.80;99.90;;;;;;5023050;28;20033;-65
2023/11/16 03:17:39;;;;;;;4.93;2.20;;;8.80;99.90;;;;;;5039043;28;20087;-65
2023/11/16 03:20:09;;;;;;;9.35;1.98;;;9.00;99.90;;;;;;5041727;28;20042;-65
2023/11/16 03:22:35;;;;;;;6.18;1.95;;;9.10;99.90;;;;;;5037621;28;20035;-65
2023/11/16 03:25:03;;;;;;;7.30;2.67;;;9.20;99.90;;;;;;5022335;28;20033;-65
2023/11/16 03:27:30;;;;;;;8.57;2.30;;;9.20;99.90;;;;;;5039204;28;20043;-65
2023/11/16 03:29:56;;;;;;;5.18;1.88;;;9.20;99.90;;;;;;5041244;28;20117;-65
2023/11/16 03:32:22;;;;;;;7.63;2.30;;;9.10;99.90;;;;;;5037772;28;20035;-65
2023/11/16 03:34:48;;;;;;;7.07;2.08;;;9.10;99.90;;;;;;5026495;28;20036;-65
2023/11/16 03:37:19;;;;;;;7.25;1.65;;;9.10;99.90;;;;;;5018827;28;20138;-65
2023/11/16 03:39:48;;;;;;;6.07;1.77;;;9.10;99.90;;;;;;5027429;28;20032;-65
2023/11/16 03:42:14;;;;;;;9.63;2.30;;;9.10;99.90;;;;;;5039706;28;20025;-65
2023/11/16 03:44:40;;;;;;;5.18;2.22;;;8.90;99.90;;;;;;5027959;28;20033;-65
2023/11/16 03:47:07;;;;;;;6.80;2.17;;;8.80;99.90;;;;;;5034165;28;20033;-65
2023/11/16 03:49:32;;;;;;;6.22;2.05;;;8.80;99.90;;;;;;5041140;28;20041;-65
2023/11/16 03:51:58;;;;;;;5.03;1.80;;;8.90;99.90;;;;;;5038269;28;20029;-65
2023/11/16 03:54:24;;;;;;;3.13;1.58;;;9.00;99.90;;;;;;5020262;28;20041;-65
2023/11/16 03:56:53;;;;;;;3.90;1.63;;;9.10;99.90;;;;;;5040831;28;20033;-65
2023/11/16 03:59:21;;;;;;;3.97;2.00;;;9.20;99.90;;;;;;5037183;28;20040;-65
2023/11/16 04:01:50;;;;;;;3.72;1.77;;;9.20;99.90;;;;;;5040140;28;20517;-65
2023/11/16 04:04:17;;;;;;;8.07;1.80;;;9.20;99.90;;;;;;5018102;28;20117;-65
2023/11/16 04:06:43;;;;;;;5.13;1.80;;;9.20;99.90;;;;;;5021107;28;20033;-65
2023/11/16 04:09:09;;;;;;;2.53;1.83;;;9.10;99.90;;;;;;5037021;28;20095;-65
2023/11/16 04:11:43;;;;;;;4.97;1.90;;;9.10;99.90;;;;;;5023184;28;20059;-65
2023/11/16 04:14:10;;;;;;;7.20;2.10;;;9.10;99.90;;;;;;5037771;28;20025;-65
2023/11/16 04:16:36;;;;;;;4.93;1.75;;;9.00;99.90;;;;;;5020945;28;20060;-64
2023/11/16 04:19:04;;;;;;;4.25;2.17;;;8.80;99.90;;;;;;5037872;28;20025;-64
2023/11/16 04:21:31;;;;;;;4.47;1.90;;;8.80;99.90;;;;;;5019659;28;20117;-64
2023/11/16 04:23:59;;;;;;;9.23;2.20;;;8.80;99.90;;;;;;5026794;28;20029;-64
2023/11/16 04:26:36;;;;;;;5.75;2.50;;;8.70;99.90;;;;;;5020104;28;20128;-65
2023/11/16 04:29:04;;;;;;;5.57;1.77;;;8.60;99.90;;;;;;5024182;28;20074;-64
2023/11/16 04:31:35;;;;;;;7.15;2.55;;;8.50;99.90;;;;;;5042685;28;20020;-65
2023/11/16 04:34:01;;;;;;;6.07;2.17;;;8.60;99.90;;;;;;5023705;28;20025;-65
2023/11/16 04:36:30;;;;;;;4.85;2.10;;;8.70;99.90;;;;;;5037406;28;20030;-65
2023/11/16 04:38:57;;;;;;;7.20;2.22;;;8.70;99.90;;;;;;5039703;28;20500;-65
2023/11/16 04:41:24;;;;;;;4.60;2.05;;;8.70;99.90;;;;;;5037776;28;20115;-64
2023/11/16 04:43:50;;;;;;;8.55;2.00;;;8.60;99.90;;;;;;5038261;28;20108;-64
2023/11/16 04:46:17;;;;;;;4.93;1.70;;;8.50;99.90;;;;;;5036806;28;20041;-64
2023/11/16 04:48:43;;;;;;;10.43;2.30;;;8.60;99.90;;;;;;5039665;28;20553;-64
2023/11/16 04:51:20;;;;;;;9.95;2.60;;;8.70;99.90;;;;;;5037849;28;20134;-65
2023/11/16 04:53:50;;;;;;;7.07;2.50;;;8.90;99.90;;;;;;5039390;28;20717;-65
2023/11/16 04:56:16;;;;;;;7.88;2.13;;;9.00;99.90;;;;;;5037212;28;20033;-65
2023/11/16 04:58:43;;;;;;;8.00;2.08;;;9.00;99.90;;;;;;5037805;28;20834;-65
2023/11/16 05:01:14;;;;;;;5.68;2.30;;;9.10;99.90;;;;;;5037512;28;20029;-65
2023/11/16 05:03:40;;;;;;;3.55;2.08;;;9.10;99.90;;;;;;5038916;28;20037;-65
2023/11/16 05:06:06;;;;;;;4.85;1.98;;;9.00;99.90;;;;;;5038914;28;20040;-65
2023/11/16 05:08:32;;;;;;;9.30;2.28;;;9.10;99.90;;;;;;5025781;28;20155;-65
2023/11/16 05:10:58;;;;;;;4.28;2.03;;;9.10;99.90;;;;;;5040066;28;20107;-65
2023/11/16 05:13:23;;;;;;;5.68;2.33;;;9.20;99.90;;;;;;5039400;28;20025;-65
2023/11/16 05:15:50;;;;;;;6.18;2.20;;;9.10;99.90;;;;;;5036467;28;20033;-65
2023/11/16 05:18:16;;;;;;;5.72;1.92;;;9.00;99.90;;;;;;5039694;28;20029;-65
2023/11/16 05:20:43;;;;;;;9.13;3.00;;;9.00;99.90;;;;;;5037132;28;20162;-65
2023/11/16 05:23:09;;;;;;;6.45;1.90;;;9.10;99.90;;;;;;5036930;28;20043;-65
2023/11/16 05:25:35;;;;;;;5.50;2.20;;;9.00;99.90;;;;;;5039266;28;20037;-65
2023/11/16 05:28:05;;;;;;;4.32;2.28;;;8.90;99.90;;;;;;5039598;28;20030;-65
2023/11/16 05:30:33;;;;;;;5.97;2.15;;;8.90;99.90;;;;;;5043484;28;20508;-65
2023/11/16 05:32:59;;;;;;;5.55;2.58;;;8.80;99.90;;;;;;5040419;28;20041;-65
2023/11/16 05:35:26;;;;;;;3.30;2.10;;;8.70;99.90;;;;;;5025880;28;20036;-65
2023/11/16 05:37:52;;;;;;;6.07;2.70;;;8.60;99.90;;;;;;5040766;28;20469;-65
2023/11/16 05:40:18;;;;;;;4.28;1.90;;;8.60;99.90;;;;;;5041813;28;20045;-65
2023/11/16 05:42:44;;;;;;;8.32;1.90;;;8.70;99.90;;;;;;5022907;28;20086;-65
2023/11/16 05:45:14;;;;;;;7.05;2.55;;;8.60;99.90;;;;;;5043293;28;20045;-65
2023/11/16 05:47:41;;;;;;;9.25;2.45;;;8.60;99.90;;;;;;5041242;28;20043;-65
2023/11/16 05:50:07;;;;;;;4.22;2.35;;;8.60;99.90;;;;;;5042039;28;20036;-65
2023/11/16 05:52:34;;;;;;;6.63;2.38;;;8.70;99.90;;;;;;5041045;28;20032;-65
2023/11/16 05:55:00;;;;;;;8.18;2.47;;;8.80;99.90;;;;;;5041208;28;20398;-65
2023/11/16 05:57:26;;;;;;;6.85;2.70;;;8.90;99.90;;;;;;5039590;28;20033;-65
2023/11/16 05:59:52;;;;;;;5.60;1.90;;;8.90;99.90;;;;;;5044380;28;20130;-65
2023/11/16 06:02:18;;;;;;;6.35;2.72;;;8.90;99.90;;;;;;5038159;28;20033;-65
2023/11/16 06:04:44;;;;;;;7.97;2.03;;;8.90;99.90;;;;;;5043531;28;20515;-65
2023/11/16 06:07:10;;;;;;;4.93;1.92;;;8.90;99.90;;;;;;5040383;28;20028;-65
2023/11/16 06:09:37;;;;;;;8.07;2.17;;;9.00;99.90;;;;;;5043423;28;20120;-65
2023/11/16 06:12:03;;;;;;;3.45;1.70;;;8.90;99.90;;;;;;5042729;28;20097;-65
2023/11/16 06:14:34;;;;;;;4.72;1.65;;;8.80;99.90;;;;;;5039910;28;20092;-65
2023/11/16 06:17:01;;;;;;;6.65;2.20;;;8.70;99.90;;;;;;5024599;28;20032;-65
2023/11/16 06:19:30;;;;;;;4.88;2.00;;;8.70;99.90;;;;;;5040004;28;20757;-65
2023/11/16 06:21:56;;;;;;;10.55;2.20;;;8.80;99.90;;;;;;5042575;28;20070;-65
2023/11/16 06:24:22;;;;;;;5.53;2.20;;;8.70;99.90;;;;;;5039666;28;20030;-65
2023/11/16 06:26:47;;;;;;;5.13;1.90;;;8.70;99.90;;;;;;5042244;28;20017;-65
2023/11/16 06:29:16;;;;;;;6.43;2.13;;;8.70;99.90;;;;;;5041064;28;20025;-65
2023/11/16 06:31:42;;;;;;;3.88;2.20;;;8.70;99.90;;;;;;5041767;28;20029;-65
2023/11/16 06:34:08;;;;;;;6.57;2.13;;;8.70;99.90;;;;;;5043269;28;20632;-65
2023/11/16 06:36:34;;;;;;;6.25;2.30;;;8.70;99.90;;;;;;5043913;28;20044;-65
2023/11/16 06:39:01;;;;;;;4.68;1.60;;;8.80;99.90;;;;;;5042085;28;20041;-65
2023/11/16 06:41:27;;;;;;;5.68;1.90;;;8.90;99.90;;;;;;5038691;28;20029;-65
2023/11/16 06:43:54;;;;;;;2.22;1.58;;;8.90;99.90;;;;;;5027521;28;20086;-64
2023/11/16 06:46:21;;;;;;;7.15;1.85;;;9.00;99.90;;;;;;5029317;28;20025;-65
2023/11/16 06:48:47;;;;;;;2.45;1.60;;;9.00;99.90;;;;;;5042787;28;20143;-65
2023/11/16 06:51:13;;;;;;;5.90;1.90;;;9.00;99.90;;;;;;5039695;28;20143;-65
2023/11/16 06:53:39;;;;;;;6.57;1.55;;;8.90;99.90;;;;;;5039627;28;20045;-66
2023/11/16 06:56:05;;;;;;;5.57;1.98;;;9.00;99.90;;;;;;5038069;28;20025;-65
2023/11/16 06:58:32;;;;;;;3.47;1.60;;;9.10;99.90;;;;;;5039948;28;20441;-65
2023/11/16 07:00:58;;;;;;;7.32;1.42;;;9.10;99.90;;;;;;5037515;28;20048;-65
2023/11/16 07:03:25;;;;;;;1.63;1.30;;;9.00;99.90;;;;;;5039645;28;20021;-65
2023/11/16 07:05:52;;;;;;;8.18;1.50;;;8.90;99.90;;;;;;5040576;28;20483;-65
2023/11/16 07:08:19;;;;;;;7.75;1.70;;;8.90;99.90;;;;;;5039219;28;20029;-65
2023/11/16 07:10:46;;;;;;;5.47;2.00;;;8.90;99.90;;;;;;5041182;28;20047;-65
2023/11/16 07:13:15;;;;;;;9.35;1.42;;;8.90;99.90;;;;;;5027128;28;20036;-65
2023/11/16 07:15:49;;;;;;;3.08;1.58;;;9.10;99.90;;;;;;5040603;28;20075;-65
2023/11/16 07:18:19;;;;;;;7.55;1.90;;;9.30;99.90;;;;;;5038152;28;20653;-65
2023/11/16 07:20:47;;;;;;;4.93;1.80;;;9.50;99.90;;;;;;5023090;28;20163;-65
2023/11/16 07:23:14;;;;;;;5.10;1.88;;;9.50;99.90;;;;;;5038603;28;20051;-65
2023/11/16 07:25:40;;;;;;;6.03;2.25;;;9.30;99.90;;;;;;5040096;28;20408;-65
2023/11/16 07:28:06;;;;;;;3.88;2.83;;;9.30;99.90;;;;;;5042441;28;20447;-64
2023/11/16 07:30:35;;;;;;;8.57;4.50;;;9.30;99.90;;;;;;5039568;28;20048;-65
2023/11/16 07:33:03;;;;;;;6.72;1.67;;;9.20;99.90;;;;;;5042837;28;20074;-65
2023/11/16 07:35:29;;;;;;;2.88;1.42;;;9.00;99.90;;;;;;5040284;28;20061;-65
2023/11/16 07:37:58;;;;;;;7.20;2.10;;;8.90;99.90;;;;;;5040814;28;20045;-65
2023/11/16 07:40:24;;;;;;;5.65;1.80;;;8.90;99.90;;;;;;5040583;28;20039;-65
2023/11/16 07:42:50;;;;;;;5.00;1.25;;;8.90;99.90;;;;;;5036917;28;20060;-65
2023/11/16 07:45:17;;;;;;;6.55;1.95;;;8.80;99.90;;;;;;5026971;28;20106;-65
2023/11/16 07:47:45;;;;;;;4.63;2.05;;;8.90;99.90;;;;;;5036338;28;20528;-65
2023/11/16 07:50:12;;;;;;;4.28;1.92;;;8.80;99.90;;;;;;5042378;28;20036;-65
2023/11/16 07:52:43;;;;;;;6.43;2.75;;;8.80;99.90;;;;;;5036381;28;20044;-65
2023/11/16 07:55:18;;;;;;;5.45;2.00;;;8.80;99.90;;;;;;5042550;28;20175;-65
2023/11/16 07:57:47;;;;;;;14.77;3.33;;;8.90;99.90;;;;;;5035870;28;20033;-65
2023/11/16 08:00:31;;;;;;;8.10;1.95;;;8.90;99.90;;;;;;5038493;28;20057;-65
2023/11/16 08:05:46;;;;;;;10.32;5.30;;;9.30;99.90;;;;;;5037472;28;20033;-65
2023/11/16 08:08:14;;;;;;;6.50;2.03;;;9.30;99.90;;;;;;5038970;28;20041;-65
2023/11/16 08:10:43;;;;;;;10.35;4.57;;;9.20;99.90;;;;;;5037865;28;20044;-65
2023/11/16 08:13:10;;;;;;;10.15;2.28;;;9.30;99.90;;;;;;5040981;28;20047;-65
2023/11/16 08:15:40;;;;;;;10.00;2.33;;;9.30;99.90;;;;;;5036109;28;20064;-65
2023/11/16 08:18:10;;;;;;;6.78;1.88;;;9.40;99.90;;;;;;5038978;28;20512;-65
2023/11/16 08:20:36;;;;;;;5.85;1.90;;;9.30;99.90;;;;;;5037723;28;20518;-65
2023/11/16 08:23:02;;;;;;;8.65;3.75;;;9.20;99.90;;;;;;5038941;28;20901;-66
2023/11/16 08:25:30;;;;;;;3.03;1.55;;;9.10;99.90;;;;;;5039583;28;20083;-65
2023/11/16 08:27:57;;;;;;;10.00;3.13;;;9.00;99.90;;;;;;5040972;28;20037;-63
2023/11/16 08:30:25;;;;;;;25.80;7.03;;;9.00;99.90;;;;;;5038199;28;20088;-64
2023/11/16 08:32:51;;;;;;;17.35;5.35;;;9.20;99.90;;;;;;5040419;28;20047;-64
2023/11/16 08:35:23;;;;;;;12.55;4.00;;;9.40;99.90;;;;;;5036471;28;20044;-66
2023/11/16 08:37:49;;;;;;;22.77;7.30;;;9.70;99.90;;;;;;5040939;28;20557;-66
2023/11/16 08:40:18;;;;;;;29.30;5.88;;;9.70;99.90;;;;;;5038840;28;20025;-66
2023/11/16 08:42:49;;;;;;;15.70;3.65;;;9.70;99.90;;;;;;5038833;28;20078;-66
2023/11/16 08:45:20;;;;;;;24.00;6.32;;;9.50;99.90;;;;;;5038404;28;20029;-66
2023/11/16 08:47:48;;;;;;;31.05;6.32;;;9.30;99.90;;;;;;5038193;28;20044;-66
2023/11/16 08:50:16;;;;;;;30.52;8.80;;;9.40;99.90;;;;;;5037964;28;20116;-66
2023/11/16 08:52:47;;;;;;;29.00;6.45;;;9.30;99.90;;;;;;5036521;28;20094;-66
2023/11/16 08:55:14;;;;;;;17.15;4.50;;;9.40;99.90;;;;;;5037533;28;20382;-66
2023/11/16 08:57:41;;;;;;;17.45;3.50;;;9.40;99.90;;;;;;5035937;28;20098;-66
2023/11/16 09:02:54;;;;;;;24.15;3.90;;;9.80;99.90;;;;;;5039222;28;20029;-67
2023/11/16 09:05:21;;;;;;;24.75;4.95;;;9.70;99.90;;;;;;5037911;28;20643;-67
2023/11/16 09:07:47;;;;;;;11.25;3.13;;;9.70;99.90;;;;;;5038474;28;20061;-66
2023/11/16 09:10:14;;;;;;;6.80;2.35;;;9.90;99.90;;;;;;5036747;28;20036;-66
2023/11/16 09:12:45;;;;;;;7.43;1.80;;;10.00;99.90;;;;;;5036521;28;20473;-66
2023/11/16 09:15:11;;;;;;;6.05;2.05;;;10.10;99.90;;;;;;5037456;28;20028;-66
2023/11/16 09:17:37;;;;;;;25.05;8.18;;;10.10;99.90;;;;;;5038216;28;20123;-67
2023/11/16 09:20:10;;;;;;;68.78;26.50;;;10.10;99.90;;;;;;5036867;28;20048;-66
2023/11/16 09:22:42;;;;;;;114.85;41.85;;;10.30;99.90;;;;;;5024147;28;20473;-67
2023/11/16 09:25:15;;;;;;;55.25;21.92;;;10.50;99.90;;;;;;5036604;28;20735;-66
2023/11/16 09:27:44;;;;;;;30.08;10.73;;;10.60;99.90;;;;;;5023114;28;20029;-66
2023/11/16 09:30:14;;;;;;;38.97;13.68;;;10.50;99.90;;;;;;5041848;28;20504;-66
2023/11/16 09:32:41;;;;;;;55.22;25.30;;;10.60;99.90;;;;;;5040179;28;20040;-66
2023/11/16 09:35:09;;;;;;;22.17;6.72;;;10.70;99.90;;;;;;5034812;28;20488;-66
2023/11/16 09:37:36;;;;;;;5.43;1.80;;;10.60;99.90;;;;;;5024251;28;20082;-66
2023/11/16 09:40:05;;;;;;;11.80;2.58;;;10.60;99.90;;;;;;5038191;28;20481;-66
2023/11/16 09:42:33;;;;;;;1.98;1.63;;;10.60;99.90;;;;;;5036429;28;20395;-67
2023/11/16 09:45:02;;;;;;;2.65;0.90;;;10.70;99.90;;;;;;5037121;28;20075;-64
2023/11/16 09:47:31;;;;;;;3.33;0.80;;;10.90;99.90;;;;;;5041543;28;20111;-67
2023/11/16 09:49:58;;;;;;;4.05;1.15;;;10.90;99.90;;;;;;5036037;28;20040;-67
2023/11/16 09:52:29;;;;;;;0.88;0.63;;;10.90;99.90;;;;;;5038209;28;20786;-67
2023/11/16 09:55:01;;;;;;;0.95;0.30;;;10.90;99.90;;;;;;5037481;28;20032;-66
2023/11/16 09:57:34;;;;;;;2.28;0.85;;;10.90;99.90;;;;;;5024864;28;20025;-67
2023/11/16 10:00:13;;;;;;;2.28;0.77;;;10.80;99.90;;;;;;5037837;28;20047;-67
2023/11/16 10:02:43;;;;;;;1.80;0.70;;;10.80;99.90;;;;;;5036819;28;20029;-66
2023/11/16 10:05:23;;;;;;;1.55;0.80;;;10.80;99.90;;;;;;5037506;28;20037;-66
2023/11/16 10:07:56;;;;;;;2.15;1.13;;;10.70;99.90;;;;;;5018587;28;20028;-67
2023/11/16 10:10:29;;;;;;;3.60;1.23;;;10.80;99.90;;;;;;5025107;28;20563;-66
2023/11/16 10:12:56;;;;;;;4.30;1.73;;;10.70;99.90;;;;;;5036493;28;20029;-66
2023/11/16 10:15:23;;;;;;;2.25;0.95;;;10.70;99.90;;;;;;5041151;28;20116;-65
2023/11/16 10:17:50;;;;;;;1.00;0.40;;;10.60;99.90;;;;;;5042592;28;20052;-65
2023/11/16 10:20:17;;;;;;;0.32;0.25;;;10.50;99.90;;;;;;5039007;28;20046;-65
2023/11/16 10:22:47;;;;;;;0.85;0.50;;;10.50;99.90;;;;;;5042574;28;20112;-66
2023/11/16 10:25:17;;;;;;;4.35;3.63;;;11.70;99.90;;;;;;5039693;28;20493;-66
2023/11/16 10:27:44;;;;;;;5.90;2.80;;;14.00;96.10;;;;;;5041873;28;20664;-66
2023/11/16 10:30:12;;;;;;;2.05;1.08;;;15.60;91.00;;;;;;5042029;28;20071;-66
2023/11/16 10:32:42;;;;;;;8.20;1.80;;;15.40;88.60;;;;;;5043693;28;20874;-66
2023/11/16 10:35:13;;;;;;;2.00;1.10;;;14.50;90.70;;;;;;5038598;28;20033;-66
2023/11/16 10:37:43;;;;;;;8.77;3.58;;;13.70;92.60;;;;;;5044298;28;20067;-66
2023/11/16 10:40:12;;;;;;;5.10;2.00;;;13.40;93.60;;;;;;5038362;28;20106;-66
2023/11/16 10:42:41;;;;;;;5.85;0.90;;;13.10;94.30;;;;;;5037666;28;20033;-67
2023/11/16 10:45:16;;;;;;;5.88;2.30;;;13.00;94.30;;;;;;5037783;28;20037;-67
2023/11/16 10:47:43;;;;;;;3.92;1.35;;;12.80;94.40;;;;;;5041211;28;20029;-67
2023/11/16 10:50:17;;;;;;;4.50;1.65;;;12.50;94.80;;;;;;5036733;28;20788;-67
2023/11/16 10:52:45;;;;;;;5.75;2.53;;;12.30;95.50;;;;;;5040718;28;20036;-67
2023/11/16 10:55:26;;;;;;;4.03;2.22;;;12.10;96.20;;;;;;5035810;28;20489;-67
2023/11/16 10:58:05;;;;;;;0.40;0.40;;;12.30;96.10;;;;;;5041267;28;20033;-69
2023/11/16 11:00:35;;;;;;;1.52;0.40;;;13.70;94.10;;;;;;5021372;28;20026;-67
2023/11/16 11:03:05;;;;;;;0.28;0.28;;;14.10;92.20;;;;;;5040838;28;20025;-67
2023/11/16 11:05:32;;;;;;;1.42;0.10;;;13.70;92.20;;;;;;5039055;28;20038;-67
2023/11/16 11:07:58;;;;;;;0.80;0.50;;;13.30;92.70;;;;;;5043396;28;20460;-67
2023/11/16 11:10:33;;;;;;;0.55;0.30;;;13.00;93.20;;;;;;5037758;28;20025;-67
2023/11/16 11:13:03;;;;;;;0.75;0.25;;;12.70;93.50;;;;;;5040594;28;20037;-67
2023/11/16 11:15:35;;;;;;;1.35;0.68;;;12.40;93.40;;;;;;5038452;28;20366;-67
2023/11/16 11:18:04;;;;;;;1.27;0.47;;;12.30;94.60;;;;;;5040451;28;20036;-67
2023/11/16 11:20:36;;;;;;;1.08;0.38;;;12.10;94.40;;;;;;5022788;28;20068;-67
2023/11/16 11:23:19;;;;;;;2.03;0.40;;;12.00;94.60;;;;;;5038600;28;20037;-67
2023/11/16 11:25:46;;;;;;;2.15;0.57;;;12.00;95.00;;;;;;5041832;28;20040;-67
2023/11/16 11:28:14;;;;;;;1.60;0.50;;;12.00;95.40;;;;;;5036698;28;20024;-67
2023/11/16 11:30:50;;;;;;;0.70;0.40;;;12.20;94.90;;;;;;5040450;28;20041;-67
2023/11/16 11:33:39;;;;;;;2.22;0.60;;;12.20;95.30;;;;;;5042850;28;20116;-67
2023/11/16 11:36:09;;;;;;;5.00;2.85;;;12.30;94.60;;;;;;5039810;28;20431;-67
2023/11/16 11:38:38;;;;;;;2.28;1.08;;;12.40;94.90;;;;;;5037968;28;20163;-67
2023/11/16 11:41:12;;;;;;;4.57;1.67;;;12.40;94.80;;;;;;5040494;28;20037;-68
2023/11/16 11:43:42;;;;;;;1.60;0.80;;;12.50;94.30;;;;;;5019098;28;20033;-67
2023/11/16 11:46:10;;;;;;;0.73;0.25;;;12.40;93.70;;;;;;5039819;28;20384;-67
2023/11/16 11:48:36;;;;;;;1.10;0.57;;;12.40;93.60;;;;;;5039352;28;20028;-67
2023/11/16 11:51:08;;;;;;;3.35;0.30;;;12.30;93.40;;;;;;5039034;28;20033;-67
2023/11/16 11:53:34;;;;;;;2.53;1.23;;;12.10;93.20;;;;;;5040513;28;20841;-67
2023/11/16 11:56:10;;;;;;;1.65;0.95;;;11.90;94.00;;;;;;5037169;28;20083;-67
2023/11/16 11:58:43;;;;;;;2.78;1.33;;;11.90;93.90;;;;;;5039202;28;20388;-66
2023/11/16 12:01:13;;;;;;;1.45;0.50;;;12.00;94.10;;;;;;5040426;28;20025;-66
2023/11/16 12:03:52;;;;;;;6.22;2.58;;;12.20;93.50;;;;;;5037470;28;20110;-66
2023/11/16 12:06:20;;;;;;;3.03;0.70;;;12.30;93.60;;;;;;5037359;28;20017;-66
2023/11/16 12:08:49;;;;;;;2.80;1.50;;;12.10;93.10;;;;;;5038776;28;20039;-66
2023/11/16 12:11:22;;;;;;;0.32;0.28;;;12.10;93.30;;;;;;5038435;28;20746;-66
2023/11/16 12:13:53;;;;;;;0.52;0.28;;;12.10;93.20;;;;;;5037689;28;20029;-66
2023/11/16 12:16:19;;;;;;;2.78;1.50;;;12.20;93.90;;;;;;5039305;28;20040;-66
2023/11/16 12:18:48;;;;;;;0.20;0.20;;;12.30;93.60;;;;;;5032119;28;20079;-67
2023/11/16 12:21:15;;;;;;;1.88;0.30;;;12.40;93.30;;;;;;5037458;28;20053;-66
2023/11/16 12:23:43;;;;;;;1.35;0.30;;;12.40;93.00;;;;;;5034771;28;20025;-66
2023/11/16 12:26:09;;;;;;;0.88;0.65;;;12.40;92.40;;;;;;5037357;28;20668;-66
2023/11/16 12:28:36;;;;;;;3.72;0.50;;;12.30;92.40;;;;;;5035793;28;20370;-66
2023/11/16 12:31:02;;;;;;;2.05;1.10;;;12.40;93.10;;;;;;5037646;28;20040;-66
2023/11/16 12:33:29;;;;;;;4.45;1.10;;;12.50;93.20;;;;;;5037935;28;20158;-66
2023/11/16 12:35:55;;;;;;;4.82;0.77;;;12.70;92.50;;;;;;5035733;28;20079;-66
2023/11/16 12:38:21;;;;;;;2.28;0.47;;;12.80;92.20;;;;;;5017641;28;20057;-66
2023/11/16 12:40:48;;;;;;;1.65;0.52;;;12.90;92.30;;;;;;5041020;28;20489;-66
2023/11/16 12:43:14;;;;;;;0.70;0.22;;;12.90;92.00;;;;;;5016864;28;20037;-66
2023/11/16 12:45:43;;;;;;;0.57;0.20;;;12.90;91.60;;;;;;5040914;28;20040;-66
2023/11/16 12:48:11;;;;;;;0.32;0.13;;;12.90;91.80;;;;;;5033956;28;20057;-66
2023/11/16 12:50:39;;;;;;;0.90;0.17;;;12.80;91.50;;;;;;5040772;28;20056;-66
2023/11/16 12:53:08;;;;;;;0.50;0.50;;;12.70;91.30;;;;;;5036445;28;20028;-66
2023/11/16 12:55:34;;;;;;;1.80;0.60;;;12.60;91.60;;;;;;5039104;28;20183;-65
2023/11/16 12:58:01;;;;;;;1.92;0.80;;;12.60;91.70;;;;;;5037063;28;20032;-66
2023/11/16 13:00:27;;;;;;;2.50;0.43;;;12.60;91.60;;;;;;5038058;28;20025;-66
2023/11/16 13:02:53;;;;;;;3.63;1.13;;;12.70;91.60;;;;;;5039220;28;20599;-66